Time;durP1;ratioP1;P1;durP2;ratioP2;P2;SDS_P1;SDS_P2;PMS_P1;PMS_P2;Temp;Humidity;BMP_temperature;BMP_pressure;BME280_temperature;BME280_humidity;BME280_pressure;Samples;Min_cycle;Max_cycle;Signal;HPM_P1;HPM_P2
2021/12/07 00:01:26;;;;;;;1.13;1.00;;;-1.50;99.90;;;;;;5002545;28;20503;-56
2021/12/07 00:03:54;;;;;;;0.63;0.60;;;-1.20;99.90;;;;;;5006948;28;20892;-56
2021/12/07 00:06:21;;;;;;;1.03;0.67;;;-0.90;99.90;;;;;;5006471;28;20451;-56
2021/12/07 00:08:53;;;;;;;1.43;0.60;;;-0.70;99.90;;;;;;5013063;28;20803;-56
2021/12/07 00:11:23;;;;;;;0.80;0.80;;;-1.30;99.90;;;;;;5006279;28;20500;-56
2021/12/07 00:13:50;;;;;;;0.60;0.50;;;-0.90;99.90;;;;;;5011298;28;20474;-56
2021/12/07 00:16:18;;;;;;;0.63;0.63;;;-0.70;99.90;;;;;;5011827;28;20577;-58
2021/12/07 00:18:47;;;;;;;0.60;0.60;;;-0.50;99.90;;;;;;5014848;28;21469;-55
2021/12/07 00:21:16;;;;;;;0.60;0.50;;;-0.50;99.90;;;;;;5008042;28;20476;-56
2021/12/07 00:23:44;;;;;;;1.30;1.27;;;-0.30;99.90;;;;;;5011499;28;20458;-57
2021/12/07 00:26:12;;;;;;;0.60;0.50;;;-0.30;99.90;;;;;;5010748;28;20520;-58
2021/12/07 00:28:41;;;;;;;0.60;0.40;;;-0.40;99.90;;;;;;5012265;28;20453;-57
2021/12/07 00:31:14;;;;;;;1.33;0.70;;;-0.30;99.90;;;;;;5009495;28;20569;-57
2021/12/07 00:33:48;;;;;;;0.60;0.50;;;-0.30;99.90;;;;;;5019951;28;20448;-56
2021/12/07 00:36:15;;;;;;;0.60;0.60;;;-1.00;99.90;;;;;;5010358;28;20475;-56
2021/12/07 00:38:43;;;;;;;0.70;0.50;;;-0.90;99.90;;;;;;5011221;28;20531;-56
2021/12/07 00:41:10;;;;;;;0.60;0.53;;;-0.70;99.90;;;;;;5009060;28;20560;-56
2021/12/07 00:43:37;;;;;;;0.60;0.60;;;-0.60;99.90;;;;;;5009944;28;20439;-58
2021/12/07 00:46:07;;;;;;;0.70;0.50;;;-0.40;99.90;;;;;;5009161;28;20535;-54
2021/12/07 00:48:35;;;;;;;0.50;0.50;;;-0.40;99.90;;;;;;5012999;28;20868;-56
2021/12/07 00:51:02;;;;;;;0.60;0.57;;;-0.30;99.90;;;;;;5009694;28;20471;-56
2021/12/07 00:53:29;;;;;;;0.70;0.63;;;-0.30;99.90;;;;;;5014065;28;20477;-57
2021/12/07 00:56:00;;;;;;;0.80;0.60;;;-0.30;99.90;;;;;;5015371;28;21176;-57
2021/12/07 00:58:29;;;;;;;0.80;0.70;;;-0.30;99.90;;;;;;5007803;28;20480;-55
2021/12/07 01:01:00;;;;;;;3.10;1.13;;;-0.30;99.90;;;;;;5011058;28;20905;-56
2021/12/07 01:03:30;;;;;;;1.00;0.77;;;-0.30;99.90;;;;;;5010524;28;20483;-55
2021/12/07 01:06:12;;;;;;;0.60;0.50;;;-0.30;99.90;;;;;;5005700;28;20475;-55
2021/12/07 01:08:56;;;;;;;0.63;0.63;;;-0.20;99.90;;;;;;5005717;28;20451;-57
2021/12/07 01:25:12;;;;;;;0.57;0.57;;;-0.60;99.90;;;;;;5012338;28;20866;-55
2021/12/07 01:27:40;;;;;;;1.80;0.97;;;-2.20;99.90;;;;;;5010457;28;20969;-57
2021/12/07 01:30:14;;;;;;;0.60;0.50;;;-2.80;99.90;;;;;;5010396;28;20444;-55
2021/12/07 01:33:01;;;;;;;1.40;0.70;;;-3.20;99.90;;;;;;5012746;28;20889;-57
2021/12/07 01:35:46;;;;;;;1.50;0.50;;;-2.50;99.90;;;;;;5006453;28;20444;-56
2021/12/07 01:41:12;;;;;;;0.57;0.50;;;-1.80;99.90;;;;;;4999737;28;20916;-56
2021/12/07 01:57:51;;;;;;;1.00;0.90;;;-1.50;99.90;;;;;;5007050;28;21042;-58
2021/12/07 02:00:20;;;;;;;1.60;0.80;;;-1.40;99.90;;;;;;5012579;28;20447;-55
2021/12/07 02:02:47;;;;;;;0.60;0.50;;;-1.40;99.90;;;;;;5006049;28;21012;-56
2021/12/07 02:05:14;;;;;;;1.37;0.73;;;-1.40;99.90;;;;;;5006425;28;20534;-56
2021/12/07 02:07:43;;;;;;;0.73;0.73;;;-1.30;99.90;;;;;;5009250;28;20531;-57
2021/12/07 02:10:15;;;;;;;0.70;0.70;;;-1.30;99.90;;;;;;5005261;28;20900;-56
2021/12/07 02:12:45;;;;;;;0.77;0.70;;;-1.40;99.90;;;;;;5007203;28;20559;-56
2021/12/07 02:15:14;;;;;;;0.80;0.80;;;-1.30;99.90;;;;;;5008715;28;20450;-57
2021/12/07 02:17:41;;;;;;;0.90;0.70;;;-1.20;99.90;;;;;;5016498;28;20586;-56
2021/12/07 02:20:11;;;;;;;0.83;0.83;;;-1.20;99.90;;;;;;5005680;28;20955;-57
2021/12/07 02:22:39;;;;;;;1.13;0.90;;;-1.10;99.90;;;;;;5007356;28;20545;-56
2021/12/07 02:25:09;;;;;;;1.43;1.17;;;-1.00;99.90;;;;;;5011439;28;20562;-56
2021/12/07 02:27:37;;;;;;;1.10;1.00;;;-1.00;99.90;;;;;;5008320;28;20534;-56
2021/12/07 02:30:04;;;;;;;1.10;1.00;;;-0.90;99.90;;;;;;5010386;28;20503;-56
2021/12/07 02:32:32;;;;;;;2.40;1.60;;;-0.80;99.90;;;;;;5006036;28;21017;-56
2021/12/07 02:35:00;;;;;;;1.93;0.83;;;-1.60;99.90;;;;;;5009403;28;20450;-54
2021/12/07 02:37:28;;;;;;;1.13;0.97;;;-1.30;99.90;;;;;;5008089;28;20554;-55
2021/12/07 02:39:58;;;;;;;0.67;0.60;;;-1.10;99.90;;;;;;5008452;28;20526;-55
2021/12/07 02:42:25;;;;;;;0.70;0.70;;;-0.90;99.90;;;;;;5007474;28;20877;-55
2021/12/07 02:44:53;;;;;;;2.63;1.00;;;-0.80;99.90;;;;;;5008308;28;20544;-55
2021/12/07 02:47:20;;;;;;;1.50;1.20;;;-0.70;99.90;;;;;;5010347;28;20478;-56
2021/12/07 02:49:47;;;;;;;0.90;0.90;;;-0.60;99.90;;;;;;5006891;28;20447;-56
2021/12/07 02:52:15;;;;;;;0.60;0.60;;;-0.80;99.90;;;;;;5008647;28;20590;-57
2021/12/07 02:54:45;;;;;;;0.70;0.70;;;-0.90;99.90;;;;;;5007518;28;20533;-56
2021/12/07 02:57:15;;;;;;;0.90;0.73;;;-0.70;99.90;;;;;;5007974;28;20856;-56
2021/12/07 02:59:45;;;;;;;0.60;0.60;;;-0.60;99.90;;;;;;5006269;28;20481;-56
2021/12/07 03:02:13;;;;;;;1.10;1.10;;;-0.40;99.90;;;;;;5008011;28;20480;-56
2021/12/07 03:04:49;;;;;;;1.00;0.80;;;-0.30;99.90;;;;;;5016290;28;20499;-55
2021/12/07 03:07:23;;;;;;;0.87;0.87;;;-0.20;99.90;;;;;;5010672;28;20465;-55
2021/12/07 03:25:50;;;;;;;1.17;1.10;;;-1.00;99.90;;;;;;5004796;28;20533;-56
2021/12/07 03:26:47;;;;;;;0.90;0.90;;;-0.50;99.90;;;;;;5006956;28;20430;-56
2021/12/07 03:29:15;;;;;;;0.63;0.63;;;-0.40;99.90;;;;;;5008335;28;20536;-56
2021/12/07 03:31:42;;;;;;;0.73;0.50;;;-0.40;99.90;;;;;;5000605;28;20548;-57
2021/12/07 03:34:09;;;;;;;0.83;0.77;;;-0.30;99.90;;;;;;5003881;28;20535;-55
2021/12/07 03:36:36;;;;;;;1.10;0.90;;;-0.20;99.90;;;;;;5004625;28;20527;-56
2021/12/07 03:39:05;;;;;;;1.30;1.10;;;-0.10;99.90;;;;;;5007522;28;20549;-56
2021/12/07 03:41:32;;;;;;;1.30;1.20;;;-0.10;99.90;;;;;;5002074;28;20502;-56
2021/12/07 03:43:59;;;;;;;1.60;1.50;;;-0.50;99.90;;;;;;5003797;28;20533;-55
2021/12/07 03:46:28;;;;;;;1.00;1.00;;;-1.30;99.90;;;;;;5009287;28;20564;-57
2021/12/07 03:48:54;;;;;;;1.33;1.23;;;-1.70;99.90;;;;;;5011328;28;20547;-56
2021/12/07 03:51:22;;;;;;;1.67;1.57;;;-1.20;99.90;;;;;;5015304;28;21044;-56
2021/12/07 03:53:49;;;;;;;1.30;1.20;;;-0.90;99.90;;;;;;5012950;28;20864;-56
2021/12/07 03:56:16;;;;;;;1.50;1.37;;;-0.70;99.90;;;;;;5011307;28;20531;-56
2021/12/07 03:58:43;;;;;;;1.47;1.07;;;-0.50;99.90;;;;;;5010910;28;20526;-56
2021/12/07 04:01:12;;;;;;;2.70;1.50;;;-1.30;99.90;;;;;;5012255;28;20563;-56
2021/12/07 04:03:45;;;;;;;1.30;1.20;;;-1.20;99.90;;;;;;5007761;28;20531;-55
2021/12/07 04:06:12;;;;;;;1.47;1.37;;;-0.90;99.90;;;;;;5009223;28;20491;-55
2021/12/07 04:08:42;;;;;;;2.07;1.20;;;-0.70;99.90;;;;;;5005311;28;20702;-58
2021/12/07 04:11:09;;;;;;;1.57;1.20;;;-0.80;99.90;;;;;;5007300;28;20554;-55
2021/12/07 04:13:37;;;;;;;7.20;4.60;;;-2.60;99.90;;;;;;5008338;28;20496;-56
2021/12/07 04:16:04;;;;;;;2.40;2.20;;;-3.00;99.90;;;;;;5012560;28;20538;-57
2021/12/07 04:18:31;;;;;;;2.93;1.90;;;-3.10;99.90;;;;;;5004934;28;20512;-55
2021/12/07 04:21:01;;;;;;;4.60;1.73;;;-2.80;99.90;;;;;;5012612;28;20898;-56
2021/12/07 04:23:29;;;;;;;1.90;1.10;;;-2.30;99.90;;;;;;5012535;28;20482;-57
2021/12/07 04:25:56;;;;;;;0.80;0.80;;;-1.90;99.90;;;;;;5014185;28;20963;-55
2021/12/07 04:28:22;;;;;;;0.90;0.90;;;-1.50;99.90;;;;;;5005509;28;20816;-56
2021/12/07 04:30:49;;;;;;;2.37;2.27;;;-1.20;99.90;;;;;;5007786;28;20538;-55
2021/12/07 04:33:17;;;;;;;2.30;1.57;;;-0.90;99.90;;;;;;5012444;28;20876;-55
2021/12/07 04:35:46;;;;;;;1.40;1.30;;;-0.80;99.90;;;;;;5004065;28;20476;-54
2021/12/07 04:38:15;;;;;;;5.70;2.13;;;-0.50;99.90;;;;;;5011012;28;20521;-57
2021/12/07 04:40:44;;;;;;;4.30;3.10;;;-0.40;99.90;;;;;;5008277;28;20539;-58
2021/12/07 04:43:11;;;;;;;3.43;2.70;;;-0.40;99.90;;;;;;5011072;28;20945;-55
2021/12/07 04:45:52;;;;;;;3.67;3.00;;;-0.30;99.90;;;;;;5004944;28;20509;-55
2021/12/07 04:48:45;;;;;;;5.80;5.30;;;-0.20;99.90;;;;;;5006059;28;21000;-55
2021/12/07 04:59:27;;;;;;;3.37;2.33;;;-0.90;99.90;;;;;;5013585;28;20433;-55
2021/12/07 05:01:54;;;;;;;4.70;3.03;;;-0.60;99.90;;;;;;5009251;28;20675;-55
2021/12/07 05:04:25;;;;;;;2.23;1.97;;;-0.40;99.90;;;;;;5005260;28;20538;-56
2021/12/07 05:06:58;;;;;;;2.10;1.90;;;-0.20;99.90;;;;;;5002047;28;20467;-57
2021/12/07 05:09:41;;;;;;;3.13;1.77;;;-0.10;99.90;;;;;;5008726;28;20452;-55
2021/12/07 05:12:31;;;;;;;9.73;2.10;;;-0.20;99.90;;;;;;5010036;28;20528;-56
2021/12/07 05:15:10;;;;;;;1.63;1.53;;;-0.10;99.90;;;;;;5002883;28;20459;-55
2021/12/07 05:39:28;;;;;;;1.33;1.00;;;-0.60;99.90;;;;;;5008766;28;20534;-57
2021/12/07 05:41:58;;;;;;;1.33;1.23;;;-0.40;99.90;;;;;;5051268;22;20496;-87
2021/12/07 05:44:26;;;;;;;1.37;1.27;;;-0.20;99.90;;;;;;5077016;28;20433;-86
2021/12/07 05:46:53;;;;;;;1.50;1.40;;;-0.10;99.90;;;;;;5070426;28;20631;-86
2021/12/07 05:49:21;;;;;;;3.20;2.60;;;0.00;99.90;;;;;;5057265;28;20475;-86
2021/12/07 05:51:48;;;;;;;5.37;3.90;;;0.10;99.90;;;;;;5058269;28;20449;-84
2021/12/07 05:54:16;;;;;;;3.97;3.57;;;0.20;99.90;;;;;;5055910;28;20785;-85
2021/12/07 05:56:43;;;;;;;3.60;3.30;;;0.30;99.90;;;;;;5050839;28;20465;-86
2021/12/07 05:59:12;;;;;;;4.43;3.27;;;0.30;99.90;;;;;;5054572;28;20469;-86
2021/12/07 06:01:39;;;;;;;4.70;3.67;;;0.30;99.90;;;;;;5053709;28;20465;-87
2021/12/07 06:04:06;;;;;;;3.90;3.20;;;0.40;99.90;;;;;;5053544;28;20559;-87
2021/12/07 06:06:34;;;;;;;4.10;3.10;;;0.30;99.90;;;;;;5056412;28;20486;-86
2021/12/07 06:09:02;;;;;;;3.13;2.63;;;0.30;99.90;;;;;;5056513;28;20497;-87
2021/12/07 06:11:29;;;;;;;1.37;1.27;;;0.20;99.90;;;;;;5052927;28;20444;-86
2021/12/07 06:13:57;;;;;;;5.17;4.77;;;0.30;99.90;;;;;;5053767;28;20444;-87
2021/12/07 06:16:29;;;;;;;3.77;3.43;;;0.30;99.90;;;;;;5049781;28;20773;-84
2021/12/07 06:18:57;;;;;;;3.60;3.30;;;0.30;99.90;;;;;;5059303;28;20473;-88
2021/12/07 06:21:25;;;;;;;4.50;4.03;;;0.30;99.90;;;;;;5054015;28;20500;-86
2021/12/07 06:23:53;;;;;;;3.00;2.67;;;0.10;99.90;;;;;;5048299;28;20446;-85
2021/12/07 06:26:20;;;;;;;7.93;3.10;;;-0.80;99.90;;;;;;5064459;28;20431;-86
2021/12/07 06:28:53;;;;;;;3.03;2.73;;;-0.80;99.90;;;;;;5063803;28;20451;-84
2021/12/07 06:31:20;;;;;;;5.17;3.00;;;-0.90;99.90;;;;;;5060543;28;20463;-86
2021/12/07 06:33:49;;;;;;;2.57;2.30;;;-0.90;99.90;;;;;;5045690;28;20468;-87
2021/12/07 06:36:16;;;;;;;2.77;2.57;;;-0.80;99.90;;;;;;5055916;28;20432;-84
2021/12/07 06:38:45;;;;;;;2.50;1.60;;;-0.70;99.90;;;;;;5052637;28;20472;-88
2021/12/07 06:41:12;;;;;;;1.60;1.50;;;-1.00;99.90;;;;;;5044375;28;20461;-87
2021/12/07 06:43:39;;;;;;;2.50;2.00;;;-1.30;99.90;;;;;;5054456;28;20443;-86
2021/12/07 06:46:07;;;;;;;1.30;1.20;;;-1.40;99.90;;;;;;5054666;28;20515;-86
2021/12/07 06:48:35;;;;;;;1.70;1.60;;;-1.40;99.90;;;;;;5055937;28;20435;-87
2021/12/07 06:51:07;;;;;;;1.60;1.50;;;-1.10;99.90;;;;;;5054803;28;20516;-85
2021/12/07 06:53:36;;;;;;;1.70;1.60;;;-0.70;99.90;;;;;;5055727;28;20431;-86
2021/12/07 06:56:06;;;;;;;2.00;1.90;;;-0.50;99.90;;;;;;5054988;28;20449;-87
2021/12/07 06:58:33;;;;;;;1.50;1.40;;;-0.30;99.90;;;;;;5055606;28;20470;-85
2021/12/07 07:01:01;;;;;;;2.10;1.77;;;-0.10;99.90;;;;;;5056058;28;20455;-88
2021/12/07 07:03:29;;;;;;;2.13;1.80;;;-0.10;99.90;;;;;;5058275;28;20438;-86
2021/12/07 07:05:56;;;;;;;2.77;1.63;;;0.00;99.90;;;;;;5057669;28;20437;-87
2021/12/07 07:08:25;;;;;;;2.07;1.97;;;0.10;99.90;;;;;;5057800;28;20470;-86
2021/12/07 07:10:52;;;;;;;2.00;1.80;;;0.10;99.90;;;;;;5055978;28;20448;-86
2021/12/07 07:13:19;;;;;;;3.47;1.90;;;-0.50;99.90;;;;;;5054986;28;20959;-85
2021/12/07 07:15:47;;;;;;;3.40;2.20;;;-1.10;99.90;;;;;;5055554;28;20426;-87
2021/12/07 07:18:17;;;;;;;3.33;2.70;;;-1.00;99.90;;;;;;5055637;28;20507;-88
2021/12/07 07:20:44;;;;;;;3.30;2.80;;;-0.70;99.90;;;;;;5052134;28;20433;-87
2021/12/07 07:23:13;;;;;;;4.30;3.40;;;-0.50;99.90;;;;;;5059914;28;20568;-87
2021/12/07 07:25:42;;;;;;;5.63;3.77;;;-0.30;99.90;;;;;;5056873;28;20450;-86
2021/12/07 07:28:09;;;;;;;4.50;3.60;;;-0.20;99.90;;;;;;5056767;28;20493;-85
2021/12/07 07:30:37;;;;;;;5.27;3.50;;;-0.10;99.90;;;;;;5051044;28;20447;-86
2021/12/07 07:33:05;;;;;;;5.50;4.97;;;0.00;99.90;;;;;;5053743;28;20507;-84
2021/12/07 07:35:33;;;;;;;4.67;3.93;;;0.10;99.90;;;;;;5054611;28;20439;-87
2021/12/07 07:38:01;;;;;;;5.40;4.00;;;0.20;99.90;;;;;;5052863;28;20479;-85
2021/12/07 07:40:29;;;;;;;4.37;3.97;;;0.30;99.90;;;;;;5059876;28;20625;-85
2021/12/07 07:42:58;;;;;;;4.63;4.23;;;0.40;99.90;;;;;;5054933;28;20838;-88
2021/12/07 07:45:28;;;;;;;4.70;4.30;;;0.40;99.90;;;;;;5051784;28;20447;-85
2021/12/07 07:47:56;;;;;;;4.53;3.80;;;0.50;99.90;;;;;;5055074;28;20463;-87
2021/12/07 07:50:24;;;;;;;4.60;3.90;;;0.50;99.90;;;;;;5050758;28;20446;-87
2021/12/07 07:52:51;;;;;;;6.07;3.80;;;0.50;99.90;;;;;;5059903;28;20435;-87
2021/12/07 07:55:19;;;;;;;4.00;3.67;;;0.20;99.90;;;;;;5056759;28;20511;-88
2021/12/07 07:57:46;;;;;;;4.67;4.27;;;0.30;99.90;;;;;;5056137;28;20488;-89
2021/12/07 08:00:17;;;;;;;6.57;4.20;;;0.50;99.90;;;;;;5054159;28;20721;-88
2021/12/07 08:02:48;;;;;;;4.10;3.80;;;0.50;99.90;;;;;;5055417;28;20441;-84
2021/12/07 08:05:16;;;;;;;3.37;3.17;;;0.60;99.90;;;;;;5054041;28;20672;-86
2021/12/07 08:07:47;;;;;;;5.00;4.47;;;0.60;99.90;;;;;;5052865;28;20440;-86
2021/12/07 08:10:17;;;;;;;5.47;4.90;;;0.60;99.90;;;;;;5052687;28;20530;-86
2021/12/07 08:12:44;;;;;;;7.03;4.17;;;0.60;99.90;;;;;;5053780;28;20452;-85
2021/12/07 08:15:12;;;;;;;4.40;4.00;;;0.60;99.90;;;;;;5050911;28;20447;-85
2021/12/07 08:17:41;;;;;;;4.77;3.30;;;0.70;99.90;;;;;;5062198;28;20488;-88
2021/12/07 08:20:09;;;;;;;3.50;3.20;;;0.70;99.90;;;;;;5055229;28;20496;-87
2021/12/07 08:22:37;;;;;;;3.80;3.40;;;0.80;99.90;;;;;;5054229;28;20457;-87
2021/12/07 08:25:05;;;;;;;5.47;4.97;;;0.90;99.90;;;;;;5057812;28;20454;-87
2021/12/07 08:27:32;;;;;;;7.30;4.13;;;0.90;99.90;;;;;;5054875;28;20465;-87
2021/12/07 08:30:00;;;;;;;6.27;3.67;;;1.00;99.90;;;;;;5055133;28;20469;-88
2021/12/07 08:32:27;;;;;;;4.03;3.63;;;0.90;99.90;;;;;;5058908;28;20461;-87
2021/12/07 08:34:56;;;;;;;5.40;4.03;;;1.00;99.90;;;;;;5060301;28;20468;-88
2021/12/07 08:37:23;;;;;;;5.50;4.37;;;0.90;99.90;;;;;;5060549;28;20486;-88
2021/12/07 08:39:51;;;;;;;8.37;4.30;;;1.00;99.90;;;;;;5058466;28;20458;-89
2021/12/07 08:42:19;;;;;;;6.10;4.13;;;1.00;99.90;;;;;;5060611;28;20478;-86
2021/12/07 08:44:50;;;;;;;10.03;5.80;;;1.00;99.90;;;;;;5060126;28;20460;-87
2021/12/07 08:47:17;;;;;;;7.00;6.30;;;0.90;99.90;;;;;;5058101;28;20502;-88
2021/12/07 08:49:48;;;;;;;7.50;4.40;;;0.90;99.90;;;;;;5059835;28;20718;-87
2021/12/07 08:52:19;;;;;;;3.77;3.40;;;0.90;99.90;;;;;;5056772;28;20460;-86
2021/12/07 09:00:22;;;;;;;5.63;4.93;;;0.90;99.90;;;;;;5055260;28;20781;-84
2021/12/07 09:02:49;;;;;;;5.70;4.37;;;1.00;99.90;;;;;;5057692;28;20444;-87
2021/12/07 09:05:17;;;;;;;5.13;4.10;;;1.00;99.90;;;;;;5056890;28;20423;-86
2021/12/07 09:07:50;;;;;;;4.63;4.17;;;1.00;99.90;;;;;;5059529;28;20469;-86
2021/12/07 09:10:18;;;;;;;4.30;3.90;;;1.00;99.90;;;;;;5058934;28;20452;-87
2021/12/07 09:12:46;;;;;;;9.30;4.93;;;1.10;99.90;;;;;;5056989;28;20505;-87
2021/12/07 09:15:13;;;;;;;4.50;4.10;;;1.00;99.90;;;;;;5057259;28;20440;-87
2021/12/07 09:17:41;;;;;;;5.87;5.27;;;1.10;99.90;;;;;;5057049;28;20458;-88
2021/12/07 09:20:16;;;;;;;4.83;4.33;;;1.10;99.90;;;;;;5056989;28;20514;-88
2021/12/07 09:22:44;;;;;;;5.23;4.73;;;1.10;99.90;;;;;;5056353;28;20442;-86
2021/12/07 09:25:14;;;;;;;4.97;4.57;;;1.10;99.90;;;;;;5056151;28;20456;-86
2021/12/07 09:27:42;;;;;;;6.00;5.47;;;1.10;99.90;;;;;;5056360;28;20462;-87
2021/12/07 09:30:15;;;;;;;7.20;6.30;;;1.20;99.90;;;;;;5056710;28;20483;-87
2021/12/07 09:32:43;;;;;;;50.00;27.13;;;1.10;99.90;;;;;;5058072;28;20531;-89
2021/12/07 09:35:13;;;;;;;26.73;14.90;;;1.20;99.90;;;;;;5056111;28;20453;-88
2021/12/07 09:37:40;;;;;;;10.30;7.90;;;1.30;99.90;;;;;;5057574;28;20458;-87
2021/12/07 09:40:11;;;;;;;6.10;5.23;;;1.30;99.90;;;;;;5057565;28;20476;-89
2021/12/07 09:42:41;;;;;;;4.53;4.03;;;1.30;99.90;;;;;;5058687;28;20450;-89
2021/12/07 09:45:11;;;;;;;5.77;5.17;;;1.10;99.90;;;;;;5055561;28;20450;-88
2021/12/07 09:47:38;;;;;;;5.83;5.10;;;0.50;99.90;;;;;;5058890;28;20476;-86
2021/12/07 09:50:09;;;;;;;7.40;4.50;;;0.80;99.90;;;;;;5057408;28;20452;-89
2021/12/07 09:52:39;;;;;;;4.77;4.33;;;0.90;99.90;;;;;;5057662;28;20504;-88
2021/12/07 09:55:08;;;;;;;5.03;3.60;;;1.00;99.90;;;;;;5059148;28;20453;-88
2021/12/07 09:57:40;;;;;;;4.00;3.47;;;1.10;99.90;;;;;;5057165;28;20502;-87
2021/12/07 10:00:13;;;;;;;5.30;3.77;;;1.10;99.90;;;;;;5059061;28;20474;-88
2021/12/07 10:02:40;;;;;;;3.03;2.63;;;-0.10;99.90;;;;;;5055860;28;20465;-88
2021/12/07 10:05:11;;;;;;;4.73;4.10;;;-0.80;99.90;;;;;;5056194;28;20435;-89
2021/12/07 10:07:38;;;;;;;5.63;5.13;;;-1.20;99.90;;;;;;5056241;28;20479;-88
2021/12/07 10:10:11;;;;;;;5.50;4.30;;;-1.20;99.90;;;;;;5057474;28;20494;-89
2021/12/07 10:12:41;;;;;;;7.27;3.73;;;-1.30;99.90;;;;;;5055088;28;20460;-89
2021/12/07 10:15:10;;;;;;;3.20;3.00;;;-1.40;99.90;;;;;;5056548;28;20435;-85
2021/12/07 10:17:40;;;;;;;6.60;4.17;;;-1.00;99.90;;;;;;5058382;28;20471;-89
2021/12/07 10:20:24;;;;;;;14.83;9.70;;;-0.60;99.90;;;;;;5057370;28;20512;-85
2021/12/07 10:22:52;;;;;;;8.03;7.10;;;-0.20;99.90;;;;;;5056542;28;20441;-88
2021/12/07 10:25:26;;;;;;;14.17;9.40;;;0.00;99.90;;;;;;5055650;28;20442;-87
2021/12/07 10:27:56;;;;;;;8.50;6.67;;;-0.10;99.90;;;;;;5055993;28;20473;-84
2021/12/07 10:30:28;;;;;;;5.20;4.70;;;0.10;99.90;;;;;;5057559;28;20488;-87
2021/12/07 10:33:00;;;;;;;6.27;4.10;;;0.30;99.90;;;;;;5049567;28;20460;-86
2021/12/07 10:35:30;;;;;;;4.60;4.03;;;0.40;99.90;;;;;;5071343;28;20454;-87
2021/12/07 10:38:13;;;;;;;4.80;4.40;;;0.50;99.90;;;;;;5059719;28;20480;-88
2021/12/07 10:40:59;;;;;;;3.83;3.53;;;0.60;99.90;;;;;;5058768;28;20488;-87
2021/12/07 10:43:48;;;;;;;5.23;4.80;;;0.70;99.90;;;;;;5056488;28;20440;-87
2021/12/07 10:46:37;;;;;;;6.00;5.20;;;0.80;99.90;;;;;;5054399;28;20597;-88
2021/12/07 10:49:25;;;;;;;6.33;5.73;;;0.90;99.90;;;;;;5055232;28;20461;-88
2021/12/07 10:52:05;;;;;;;6.23;5.50;;;0.90;99.90;;;;;;5056225;28;20448;-87
2021/12/07 10:54:35;;;;;;;4.83;4.43;;;1.00;99.90;;;;;;5058519;28;20471;-89
2021/12/07 10:57:05;;;;;;;5.77;5.17;;;1.10;99.90;;;;;;5055804;28;20477;-87
2021/12/07 10:59:36;;;;;;;4.97;4.57;;;1.20;99.90;;;;;;5055704;28;20465;-88
2021/12/07 11:02:13;;;;;;;3.33;3.03;;;0.70;99.90;;;;;;5055788;28;20475;-89
2021/12/07 11:04:41;;;;;;;3.67;3.23;;;0.20;99.90;;;;;;5055770;28;20472;-89
2021/12/07 11:07:12;;;;;;;3.43;3.13;;;0.50;99.90;;;;;;5064730;28;20463;-89
2021/12/07 11:09:46;;;;;;;6.77;4.87;;;0.80;99.90;;;;;;5057298;28;20435;-88
2021/12/07 11:12:19;;;;;;;8.03;5.80;;;0.90;99.90;;;;;;5056407;28;20469;-89
2021/12/07 11:14:53;;;;;;;9.03;6.50;;;1.00;99.90;;;;;;5055918;28;20450;-90
2021/12/07 11:17:24;;;;;;;6.93;6.20;;;0.70;99.90;;;;;;5056537;28;20459;-89
2021/12/07 11:19:52;;;;;;;7.10;6.20;;;-0.20;99.90;;;;;;5055888;28;20469;-91
2021/12/07 11:22:23;;;;;;;6.83;5.40;;;-0.20;99.90;;;;;;5057260;28;20485;-88
2021/12/07 11:24:51;;;;;;;5.93;5.30;;;0.30;99.90;;;;;;5058182;28;20441;-89
2021/12/07 11:29:49;;;;;;;5.10;4.07;;;0.80;99.90;;;;;;5096438;22;20489;-78
2021/12/07 11:32:18;;;;;;;5.23;4.27;;;1.10;99.90;;;;;;5025925;28;20955;-78
2021/12/07 11:34:46;;;;;;;3.83;2.93;;;1.20;99.90;;;;;;5027691;28;20881;-78
2021/12/07 11:37:15;;;;;;;3.83;3.33;;;0.70;99.90;;;;;;5031428;28;20458;-77
2021/12/07 11:39:47;;;;;;;4.50;4.10;;;0.90;99.90;;;;;;5030995;28;20498;-78
2021/12/07 11:42:17;;;;;;;5.03;4.63;;;1.20;99.90;;;;;;5029974;28;20449;-78
2021/12/07 11:44:51;;;;;;;6.07;3.97;;;1.30;99.90;;;;;;5033183;28;20476;-78
2021/12/07 11:47:26;;;;;;;4.50;3.90;;;1.50;99.90;;;;;;5033990;28;20583;-78
2021/12/07 11:49:54;;;;;;;4.37;3.97;;;1.60;99.90;;;;;;5025441;28;20522;-78
2021/12/07 11:52:21;;;;;;;5.50;4.53;;;1.40;99.90;;;;;;5032699;28;20454;-78
2021/12/07 11:54:49;;;;;;;4.57;4.17;;;1.50;99.90;;;;;;5030088;28;20801;-77
2021/12/07 11:57:18;;;;;;;4.33;3.97;;;1.70;99.90;;;;;;5027073;28;20937;-78
2021/12/07 11:59:49;;;;;;;5.33;4.40;;;1.80;99.90;;;;;;5027881;28;20619;-78
2021/12/07 12:02:18;;;;;;;5.67;4.40;;;1.80;99.90;;;;;;5027977;28;20496;-77
2021/12/07 12:04:45;;;;;;;4.97;4.47;;;1.90;99.90;;;;;;5029310;28;20875;-78
2021/12/07 12:07:13;;;;;;;8.00;5.37;;;1.80;99.90;;;;;;5026732;28;20493;-78
2021/12/07 12:09:46;;;;;;;5.63;5.00;;;1.90;99.90;;;;;;5034964;28;20481;-78
2021/12/07 12:12:20;;;;;;;5.00;4.50;;;1.60;99.90;;;;;;5034438;28;20442;-78
2021/12/07 12:14:59;;;;;;;5.20;4.70;;;1.70;99.90;;;;;;5034304;28;20473;-78
2021/12/07 12:17:35;;;;;;;8.33;7.43;;;1.90;99.90;;;;;;5031831;28;20472;-78
2021/12/07 12:20:26;;;;;;;7.03;5.60;;;2.10;99.90;;;;;;5031922;28;20509;-78
2021/12/07 12:22:59;;;;;;;7.33;5.27;;;2.10;99.90;;;;;;5032484;28;20810;-78
2021/12/07 12:25:28;;;;;;;5.77;4.57;;;2.10;99.90;;;;;;5030009;28;20472;-78
2021/12/07 12:27:57;;;;;;;4.80;3.70;;;2.20;99.90;;;;;;5030287;28;20469;-78
2021/12/07 12:30:28;;;;;;;5.03;4.10;;;2.30;99.90;;;;;;5033554;28;20942;-78
2021/12/07 12:32:58;;;;;;;5.20;4.60;;;2.00;99.90;;;;;;5031129;28;20868;-78
2021/12/07 12:35:34;;;;;;;4.73;4.33;;;1.50;99.90;;;;;;5031370;28;20470;-80
2021/12/07 12:38:02;;;;;;;5.37;4.87;;;1.70;99.90;;;;;;5028806;28;20477;-80
2021/12/07 12:40:33;;;;;;;8.20;4.43;;;1.90;99.90;;;;;;5028540;28;20489;-79
2021/12/07 12:43:02;;;;;;;4.40;4.00;;;2.00;99.90;;;;;;5029893;28;20484;-80
2021/12/07 12:45:35;;;;;;;5.40;4.60;;;2.10;99.90;;;;;;5027475;28;20465;-78
2021/12/07 12:48:04;;;;;;;6.80;6.10;;;2.20;99.90;;;;;;5027070;28;20590;-78
2021/12/07 12:50:35;;;;;;;6.03;5.53;;;2.20;99.90;;;;;;5030176;28;20474;-81
2021/12/07 12:53:06;;;;;;;6.07;4.67;;;2.10;99.90;;;;;;5029982;28;20461;-77
2021/12/07 12:55:40;;;;;;;6.33;5.23;;;2.20;99.90;;;;;;5029558;28;20862;-78
2021/12/07 12:58:11;;;;;;;4.40;4.10;;;2.30;99.90;;;;;;5029446;28;20564;-78
2021/12/07 13:00:59;;;;;;;4.70;4.10;;;2.30;99.90;;;;;;5030568;28;20529;-78
2021/12/07 13:03:27;;;;;;;6.17;4.50;;;2.30;99.90;;;;;;5026105;28;20869;-78
2021/12/07 13:05:59;;;;;;;6.40;4.60;;;2.40;99.90;;;;;;5030565;28;20874;-78
2021/12/07 13:08:27;;;;;;;4.87;3.97;;;2.40;99.90;;;;;;5030676;28;20474;-78
2021/12/07 13:10:59;;;;;;;4.53;4.10;;;2.40;99.90;;;;;;5027368;28;20479;-78
2021/12/07 13:13:30;;;;;;;3.70;3.37;;;2.40;99.90;;;;;;5030572;28;20481;-78
2021/12/07 13:15:59;;;;;;;4.63;4.20;;;2.40;99.90;;;;;;5032240;28;20528;-78
2021/12/07 13:18:31;;;;;;;23.77;13.73;;;2.50;99.90;;;;;;5023256;28;20494;-78
2021/12/07 13:20:59;;;;;;;12.20;5.83;;;2.80;99.90;;;;;;5030019;28;20474;-78
2021/12/07 13:23:29;;;;;;;46.83;20.57;;;3.90;99.90;;;;;;5031963;28;20484;-78
2021/12/07 13:25:56;;;;;;;7.43;5.50;;;4.90;99.90;;;;;;5039225;28;20440;-78
2021/12/07 13:28:26;;;;;;;5.67;4.40;;;6.00;99.90;;;;;;5031505;28;20522;-78
2021/12/07 13:30:59;;;;;;;6.40;4.87;;;6.30;99.90;;;;;;5023977;28;20455;-78
2021/12/07 13:33:37;;;;;;;7.03;5.10;;;6.30;99.90;;;;;;5030002;28;21073;-78
2021/12/07 13:36:46;;;;;;;4.47;4.07;;;5.90;99.90;;;;;;5029259;28;20954;-78
2021/12/07 13:39:45;;;;;;;3.90;3.60;;;5.40;99.90;;;;;;5028842;28;20903;-78
2021/12/07 13:42:28;;;;;;;10.20;7.00;;;4.80;99.90;;;;;;5030121;28;20522;-78
2021/12/07 13:44:58;;;;;;;9.97;6.50;;;4.50;99.90;;;;;;5023011;28;20480;-78
2021/12/07 13:47:29;;;;;;;7.67;6.23;;;4.10;99.90;;;;;;5026115;28;20477;-77
2021/12/07 13:49:59;;;;;;;7.53;5.83;;;3.80;99.90;;;;;;5027691;28;21037;-78
2021/12/07 13:52:30;;;;;;;9.07;7.37;;;3.50;99.90;;;;;;5038277;28;20524;-78
2021/12/07 13:54:59;;;;;;;12.90;9.30;;;3.30;99.90;;;;;;5031721;28;20488;-78
2021/12/07 13:57:29;;;;;;;12.70;8.63;;;3.10;99.90;;;;;;5032357;28;20466;-78
2021/12/07 14:00:13;;;;;;;11.33;7.53;;;2.80;99.90;;;;;;5029194;28;20503;-79
2021/12/07 14:02:46;;;;;;;10.10;7.20;;;2.60;99.90;;;;;;5029183;28;20477;-78
2021/12/07 14:05:15;;;;;;;11.13;7.60;;;2.40;99.90;;;;;;5032051;28;20489;-78
2021/12/07 14:07:44;;;;;;;8.70;6.80;;;1.90;99.90;;;;;;5029702;28;20545;-78
2021/12/07 14:10:17;;;;;;;10.07;6.50;;;1.50;99.90;;;;;;5029026;28;20533;-78
2021/12/07 14:12:45;;;;;;;15.27;9.23;;;1.00;99.90;;;;;;5031006;28;20506;-78
2021/12/07 14:15:17;;;;;;;14.07;9.17;;;0.70;99.90;;;;;;5033034;28;20489;-78
2021/12/07 14:17:47;;;;;;;11.43;9.10;;;0.90;99.90;;;;;;5031232;28;20508;-78
2021/12/07 14:20:14;;;;;;;13.20;9.20;;;0.90;99.90;;;;;;5030921;28;20619;-78
2021/12/07 14:22:46;;;;;;;11.97;8.77;;;1.00;99.90;;;;;;5032578;28;20485;-78
2021/12/07 14:25:18;;;;;;;9.13;7.20;;;1.00;99.90;;;;;;5030258;28;20449;-79
2021/12/07 14:27:45;;;;;;;8.30;6.67;;;0.90;99.90;;;;;;5032830;28;20476;-78
2021/12/07 14:30:14;;;;;;;8.60;6.80;;;0.80;99.90;;;;;;5044606;28;20449;-77